sensor_id;sensor_type;location;lat;lon;timestamp;pressure;altitude;pressure_sealevel;temperature;humidity
72038;BME280;59900;50.788;12.904;2023-03-15T00:01:42;96835.53;;;1.81;86.89
72038;BME280;59900;50.788;12.904;2023-03-15T00:04:10;96838.28;;;1.79;87.04
72038;BME280;59900;50.788;12.904;2023-03-15T00:06:35;96834.91;;;1.79;86.90
72038;BME280;59900;50.788;12.904;2023-03-15T00:09:00;96835.84;;;1.78;87.04
72038;BME280;59900;50.788;12.904;2023-03-15T00:11:27;96845.09;;;1.80;86.72
72038;BME280;59900;50.788;12.904;2023-03-15T00:13:52;96845.25;;;1.79;86.77
72038;BME280;59900;50.788;12.904;2023-03-15T00:16:17;96846.84;;;1.80;86.95
72038;BME280;59900;50.788;12.904;2023-03-15T00:18:46;96849.75;;;1.77;87.34
72038;BME280;59900;50.788;12.904;2023-03-15T00:21:12;96851.06;;;1.73;87.06
72038;BME280;59900;50.788;12.904;2023-03-15T00:23:37;96850.25;;;1.72;87.80
72038;BME280;59900;50.788;12.904;2023-03-15T00:26:02;96851.53;;;1.68;87.56
72038;BME280;59900;50.788;12.904;2023-03-15T00:28:28;96855.88;;;1.67;88.28
72038;BME280;59900;50.788;12.904;2023-03-15T00:31:04;96852.97;;;1.70;87.65
72038;BME280;59900;50.788;12.904;2023-03-15T00:33:29;96860.41;;;1.65;87.52
72038;BME280;59900;50.788;12.904;2023-03-15T00:36:00;96869.97;;;1.65;88.16
72038;BME280;59900;50.788;12.904;2023-03-15T00:38:26;96864.78;;;1.65;87.03
72038;BME280;59900;50.788;12.904;2023-03-15T00:40:51;96870.47;;;1.68;87.53
72038;BME280;59900;50.788;12.904;2023-03-15T00:43:16;96863.81;;;1.66;87.22
72038;BME280;59900;50.788;12.904;2023-03-15T00:45:41;96873.88;;;1.69;86.05
72038;BME280;59900;50.788;12.904;2023-03-15T00:48:09;96876.13;;;1.64;85.85
72038;BME280;59900;50.788;12.904;2023-03-15T00:50:34;96867.06;;;1.68;85.25
72038;BME280;59900;50.788;12.904;2023-03-15T00:52:59;96867.22;;;1.66;85.70
72038;BME280;59900;50.788;12.904;2023-03-15T00:55:24;96864.31;;;1.69;85.19
72038;BME280;59900;50.788;12.904;2023-03-15T00:57:51;96873.06;;;1.68;85.22
72038;BME280;59900;50.788;12.904;2023-03-15T01:00:20;96874.19;;;1.66;86.00
72038;BME280;59900;50.788;12.904;2023-03-15T01:02:49;96873.22;;;1.67;84.87
72038;BME280;59900;50.788;12.904;2023-03-15T01:05:15;96885.34;;;1.66;84.84
72038;BME280;59900;50.788;12.904;2023-03-15T01:07:40;96883.72;;;1.65;84.40
72038;BME280;59900;50.788;12.904;2023-03-15T01:10:06;96885.34;;;1.66;84.46
72038;BME280;59900;50.788;12.904;2023-03-15T01:12:32;96886.50;;;1.64;84.55
72038;BME280;59900;50.788;12.904;2023-03-15T01:14:59;96893.13;;;1.66;84.18
72038;BME280;59900;50.788;12.904;2023-03-15T01:17:24;96891.81;;;1.62;83.84
72038;BME280;59900;50.788;12.904;2023-03-15T01:19:50;96887.75;;;1.60;84.53
72038;BME280;59900;50.788;12.904;2023-03-15T01:22:16;96880.94;;;1.59;84.36
72038;BME280;59900;50.788;12.904;2023-03-15T01:24:41;96881.44;;;1.54;83.68
72038;BME280;59900;50.788;12.904;2023-03-15T01:27:06;96885.47;;;1.57;83.66
72038;BME280;59900;50.788;12.904;2023-03-15T01:29:32;96890.00;;;1.55;83.70
72038;BME280;59900;50.788;12.904;2023-03-15T01:31:57;96885.34;;;1.58;83.47
72038;BME280;59900;50.788;12.904;2023-03-15T01:34:22;96883.06;;;1.55;83.63
72038;BME280;59900;50.788;12.904;2023-03-15T01:36:50;96888.53;;;1.52;83.84
72038;BME280;59900;50.788;12.904;2023-03-15T01:39:19;96886.91;;;1.51;84.54
72038;BME280;59900;50.788;12.904;2023-03-15T01:41:45;96890.31;;;1.52;84.29
72038;BME280;59900;50.788;12.904;2023-03-15T01:44:14;96885.78;;;1.54;83.77
72038;BME280;59900;50.788;12.904;2023-03-15T01:46:40;96892.41;;;1.48;83.81
72038;BME280;59900;50.788;12.904;2023-03-15T01:49:26;96895.81;;;1.49;84.56
72038;BME280;59900;50.788;12.904;2023-03-15T01:51:57;96897.06;;;1.45;84.69
72038;BME280;59900;50.788;12.904;2023-03-15T01:54:32;96894.78;;;1.42;84.55
72038;BME280;59900;50.788;12.904;2023-03-15T01:57:05;96902.03;;;1.38;84.62
72038;BME280;59900;50.788;12.904;2023-03-15T01:59:36;96907.09;;;1.40;84.10
72038;BME280;59900;50.788;12.904;2023-03-15T02:02:04;96906.78;;;1.43;83.54
72038;BME280;59900;50.788;12.904;2023-03-15T02:04:37;96904.19;;;1.43;82.43
72038;BME280;59900;50.788;12.904;2023-03-15T02:07:05;96919.72;;;1.43;82.38
72038;BME280;59900;50.788;12.904;2023-03-15T02:09:49;96914.88;;;1.48;82.30
72038;BME280;59900;50.788;12.904;2023-03-15T02:12:17;96915.06;;;1.46;82.38
72038;BME280;59900;50.788;12.904;2023-03-15T02:14:43;96918.59;;;1.45;82.52
72038;BME280;59900;50.788;12.904;2023-03-15T02:17:09;96903.53;;;1.41;82.59
72038;BME280;59900;50.788;12.904;2023-03-15T02:20:10;96918.91;;;1.42;82.81
72038;BME280;59900;50.788;12.904;2023-03-15T02:22:46;96921.28;;;1.36;83.48
72038;BME280;59900;50.788;12.904;2023-03-15T02:25:28;96922.28;;;1.35;83.20
72038;BME280;59900;50.788;12.904;2023-03-15T02:28:00;96928.91;;;1.37;83.32
72038;BME280;59900;50.788;12.904;2023-03-15T02:30:25;96928.41;;;1.34;82.70
72038;BME280;59900;50.788;12.904;2023-03-15T02:32:51;96935.53;;;1.32;82.85
72038;BME280;59900;50.788;12.904;2023-03-15T02:35:25;96931.59;;;1.28;82.93
72038;BME280;59900;50.788;12.904;2023-03-15T02:37:51;96929.19;;;1.26;83.17
72038;BME280;59900;50.788;12.904;2023-03-15T02:40:22;96926.28;;;1.29;82.41
72038;BME280;59900;50.788;12.904;2023-03-15T02:42:51;96946.31;;;1.27;82.13
72038;BME280;59900;50.788;12.904;2023-03-15T02:45:18;96939.97;;;1.22;82.23
72038;BME280;59900;50.788;12.904;2023-03-15T02:47:44;96946.94;;;1.21;81.62
72038;BME280;59900;50.788;12.904;2023-03-15T02:50:10;96948.03;;;1.19;81.80
72038;BME280;59900;50.788;12.904;2023-03-15T02:52:36;96953.53;;;1.16;81.75
72038;BME280;59900;50.788;12.904;2023-03-15T02:55:01;96962.56;;;1.11;81.99
72038;BME280;59900;50.788;12.904;2023-03-15T02:57:26;96964.16;;;1.12;81.59
72038;BME280;59900;50.788;12.904;2023-03-15T02:59:52;96971.94;;;1.12;82.15
72038;BME280;59900;50.788;12.904;2023-03-15T03:02:19;96970.94;;;1.05;82.91
72038;BME280;59900;50.788;12.904;2023-03-15T03:04:44;96968.03;;;1.08;82.33
72038;BME280;59900;50.788;12.904;2023-03-15T03:07:09;96974.81;;;1.09;82.69
72038;BME280;59900;50.788;12.904;2023-03-15T03:09:35;96973.53;;;1.05;83.41
72038;BME280;59900;50.788;12.904;2023-03-15T03:12:00;96987.06;;;0.99;83.87
72038;BME280;59900;50.788;12.904;2023-03-15T03:14:25;96991.84;;;0.94;84.34
72038;BME280;59900;50.788;12.904;2023-03-15T03:16:51;96993.78;;;0.92;84.21
72038;BME280;59900;50.788;12.904;2023-03-15T03:19:16;97001.19;;;0.87;84.44
72038;BME280;59900;50.788;12.904;2023-03-15T03:21:41;97000.50;;;0.85;84.43
72038;BME280;59900;50.788;12.904;2023-03-15T03:24:10;97009.38;;;0.83;84.02
72038;BME280;59900;50.788;12.904;2023-03-15T03:26:36;97006.28;;;0.79;84.01
72038;BME280;59900;50.788;12.904;2023-03-15T03:29:03;97010.94;;;0.76;83.79
72038;BME280;59900;50.788;12.904;2023-03-15T03:31:31;97009.28;;;0.75;83.49
72038;BME280;59900;50.788;12.904;2023-03-15T03:33:58;97009.94;;;0.77;83.81
72038;BME280;59900;50.788;12.904;2023-03-15T03:36:24;97017.59;;;0.78;83.24
72038;BME280;59900;50.788;12.904;2023-03-15T03:38:49;97017.88;;;0.75;83.33
72038;BME280;59900;50.788;12.904;2023-03-15T03:41:15;97013.53;;;0.76;83.59
72038;BME280;59900;50.788;12.904;2023-03-15T03:43:41;97020.75;;;0.72;83.45
72038;BME280;59900;50.788;12.904;2023-03-15T03:46:06;97019.28;;;0.70;84.18
72038;BME280;59900;50.788;12.904;2023-03-15T03:48:32;97028.81;;;0.69;84.30
72038;BME280;59900;50.788;12.904;2023-03-15T03:50:57;97028.16;;;0.67;84.28
72038;BME280;59900;50.788;12.904;2023-03-15T03:53:23;97037.00;;;0.65;84.34
72038;BME280;59900;50.788;12.904;2023-03-15T03:55:48;97038.25;;;0.61;84.10
72038;BME280;59900;50.788;12.904;2023-03-15T03:58:14;97045.19;;;0.60;84.03
72038;BME280;59900;50.788;12.904;2023-03-15T04:00:39;97058.03;;;0.52;84.55
72038;BME280;59900;50.788;12.904;2023-03-15T04:03:06;97051.75;;;0.54;83.75
72038;BME280;59900;50.788;12.904;2023-03-15T04:05:31;97057.34;;;0.50;84.08
72038;BME280;59900;50.788;12.904;2023-03-15T04:07:56;97057.06;;;0.53;83.85
72038;BME280;59900;50.788;12.904;2023-03-15T04:10:22;97059.56;;;0.45;84.38
72038;BME280;59900;50.788;12.904;2023-03-15T04:12:52;97075.91;;;0.45;84.27
72038;BME280;59900;50.788;12.904;2023-03-15T04:15:18;97070.88;;;0.44;84.59
72038;BME280;59900;50.788;12.904;2023-03-15T04:17:43;97078.94;;;0.41;84.12
72038;BME280;59900;50.788;12.904;2023-03-15T04:20:09;97076.34;;;0.41;84.02
72038;BME280;59900;50.788;12.904;2023-03-15T04:22:37;97083.13;;;0.42;83.84
72038;BME280;59900;50.788;12.904;2023-03-15T04:25:02;97086.69;;;0.41;84.18
72038;BME280;59900;50.788;12.904;2023-03-15T04:27:28;97085.31;;;0.37;83.71
72038;BME280;59900;50.788;12.904;2023-03-15T04:29:53;97083.69;;;0.36;83.76
72038;BME280;59900;50.788;12.904;2023-03-15T04:32:19;97086.16;;;0.37;83.53
72038;BME280;59900;50.788;12.904;2023-03-15T04:34:44;97094.03;;;0.36;83.83
72038;BME280;59900;50.788;12.904;2023-03-15T04:37:09;97097.44;;;0.36;83.67
72038;BME280;59900;50.788;12.904;2023-03-15T04:39:35;97096.78;;;0.34;83.40
72038;BME280;59900;50.788;12.904;2023-03-15T04:42:00;97103.69;;;0.34;83.10
72038;BME280;59900;50.788;12.904;2023-03-15T04:44:25;97107.50;;;0.30;83.36
72038;BME280;59900;50.788;12.904;2023-03-15T04:46:54;97104.94;;;0.30;83.08
72038;BME280;59900;50.788;12.904;2023-03-15T04:49:19;97108.78;;;0.26;83.29
72038;BME280;59900;50.788;12.904;2023-03-15T04:51:45;97114.88;;;0.25;83.35
72038;BME280;59900;50.788;12.904;2023-03-15T04:54:10;97115.72;;;0.25;82.78
72038;BME280;59900;50.788;12.904;2023-03-15T04:56:35;97121.53;;;0.27;82.94
72038;BME280;59900;50.788;12.904;2023-03-15T04:59:01;97115.56;;;0.27;82.79
72038;BME280;59900;50.788;12.904;2023-03-15T05:01:29;97124.13;;;0.27;82.97
72038;BME280;59900;50.788;12.904;2023-03-15T05:03:55;97123.31;;;0.27;83.31
72038;BME280;59900;50.788;12.904;2023-03-15T05:06:21;97132.16;;;0.24;82.76
72038;BME280;59900;50.788;12.904;2023-03-15T05:08:46;97137.47;;;0.23;83.47
72038;BME280;59900;50.788;12.904;2023-03-15T05:11:12;97148.75;;;0.22;83.25
72038;BME280;59900;50.788;12.904;2023-03-15T05:13:37;97150.53;;;0.21;83.80
72038;BME280;59900;50.788;12.904;2023-03-15T05:16:02;97157.75;;;0.18;84.00
72038;BME280;59900;50.788;12.904;2023-03-15T05:18:28;97164.53;;;0.19;83.92
72038;BME280;59900;50.788;12.904;2023-03-15T05:20:53;97160.31;;;0.18;84.24
72038;BME280;59900;50.788;12.904;2023-03-15T05:23:23;97162.41;;;0.14;84.49
72038;BME280;59900;50.788;12.904;2023-03-15T05:25:50;97168.22;;;0.16;84.59
72038;BME280;59900;50.788;12.904;2023-03-15T05:28:18;97168.50;;;0.13;84.69
72038;BME280;59900;50.788;12.904;2023-03-15T05:30:43;97175.44;;;0.13;84.58
72038;BME280;59900;50.788;12.904;2023-03-15T05:33:08;97177.34;;;0.11;84.43
72038;BME280;59900;50.788;12.904;2023-03-15T05:35:34;97180.59;;;0.13;84.39
72038;BME280;59900;50.788;12.904;2023-03-15T05:37:59;97182.09;;;0.15;83.89
72038;BME280;59900;50.788;12.904;2023-03-15T05:40:25;97182.25;;;0.14;83.85
72038;BME280;59900;50.788;12.904;2023-03-15T05:42:53;97179.78;;;0.12;84.42
72038;BME280;59900;50.788;12.904;2023-03-15T05:45:19;97183.19;;;0.13;83.89
72038;BME280;59900;50.788;12.904;2023-03-15T05:47:44;97195.97;;;0.14;83.64
72038;BME280;59900;50.788;12.904;2023-03-15T05:50:10;97203.19;;;0.11;83.93
72038;BME280;59900;50.788;12.904;2023-03-15T05:52:35;97208.34;;;0.11;84.21
72038;BME280;59900;50.788;12.904;2023-03-15T05:55:00;97201.28;;;0.13;84.09
72038;BME280;59900;50.788;12.904;2023-03-15T05:57:25;97207.25;;;0.13;83.86
72038;BME280;59900;50.788;12.904;2023-03-15T05:59:51;97213.25;;;0.14;84.31
72038;BME280;59900;50.788;12.904;2023-03-15T06:02:16;97211.34;;;0.16;84.23
72038;BME280;59900;50.788;12.904;2023-03-15T06:04:41;97204.69;;;0.13;84.18
72038;BME280;59900;50.788;12.904;2023-03-15T06:07:06;97213.50;;;0.20;85.69
72038;BME280;59900;50.788;12.904;2023-03-15T06:09:32;97221.91;;;0.32;85.69
72038;BME280;59900;50.788;12.904;2023-03-15T06:11:57;97222.97;;;0.39;84.60
72038;BME280;59900;50.788;12.904;2023-03-15T06:14:24;97226.81;;;0.35;83.80
72038;BME280;59900;50.788;12.904;2023-03-15T06:16:49;97226.25;;;0.31;84.02
72038;BME280;59900;50.788;12.904;2023-03-15T06:19:14;97229.78;;;0.30;84.16
72038;BME280;59900;50.788;12.904;2023-03-15T06:21:40;97233.19;;;0.31;83.83
72038;BME280;59900;50.788;12.904;2023-03-15T06:24:05;97242.59;;;0.32;84.23
72038;BME280;59900;50.788;12.904;2023-03-15T06:26:31;97241.63;;;0.33;83.99
72038;BME280;59900;50.788;12.904;2023-03-15T06:28:56;97245.81;;;0.43;83.89
72038;BME280;59900;50.788;12.904;2023-03-15T06:31:21;97250.28;;;0.51;83.54
72038;BME280;59900;50.788;12.904;2023-03-15T06:33:46;97243.59;;;0.58;83.18
72038;BME280;59900;50.788;12.904;2023-03-15T06:36:12;97248.06;;;0.66;82.85
72038;BME280;59900;50.788;12.904;2023-03-15T06:38:38;97248.84;;;0.76;82.69
72038;BME280;59900;50.788;12.904;2023-03-15T06:41:03;97257.25;;;0.87;82.03
72038;BME280;59900;50.788;12.904;2023-03-15T06:43:29;97253.41;;;0.91;82.25
72038;BME280;59900;50.788;12.904;2023-03-15T06:45:54;97254.47;;;0.98;82.25
72038;BME280;59900;50.788;12.904;2023-03-15T06:48:22;97262.31;;;1.06;81.89
72038;BME280;59900;50.788;12.904;2023-03-15T06:50:47;97260.94;;;1.12;81.87
72038;BME280;59900;50.788;12.904;2023-03-15T06:53:13;97263.09;;;1.17;81.30
72038;BME280;59900;50.788;12.904;2023-03-15T06:55:38;97260.59;;;1.25;80.99
72038;BME280;59900;50.788;12.904;2023-03-15T06:58:04;97270.38;;;1.31;80.36
72038;BME280;59900;50.788;12.904;2023-03-15T07:00:29;97258.50;;;1.38;79.93
72038;BME280;59900;50.788;12.904;2023-03-15T07:02:55;97261.97;;;1.46;80.14
72038;BME280;59900;50.788;12.904;2023-03-15T07:05:20;97265.06;;;1.50;79.05
72038;BME280;59900;50.788;12.904;2023-03-15T07:07:45;97260.94;;;1.57;79.02
72038;BME280;59900;50.788;12.904;2023-03-15T07:10:10;97257.13;;;1.61;78.73
72038;BME280;59900;50.788;12.904;2023-03-15T07:12:36;97270.56;;;1.64;77.95
72038;BME280;59900;50.788;12.904;2023-03-15T07:15:01;97258.31;;;1.66;77.25
72038;BME280;59900;50.788;12.904;2023-03-15T07:17:26;97264.44;;;1.65;75.92
72038;BME280;59900;50.788;12.904;2023-03-15T07:19:52;97273.38;;;1.71;76.48
72038;BME280;59900;50.788;12.904;2023-03-15T07:22:17;97278.97;;;1.76;75.31
72038;BME280;59900;50.788;12.904;2023-03-15T07:24:42;97272.50;;;1.80;75.07
72038;BME280;59900;50.788;12.904;2023-03-15T07:27:11;97274.78;;;1.83;73.82
72038;BME280;59900;50.788;12.904;2023-03-15T07:29:36;97281.03;;;1.90;74.67
72038;BME280;59900;50.788;12.904;2023-03-15T07:32:01;97271.03;;;1.95;73.53
72038;BME280;59900;50.788;12.904;2023-03-15T07:34:26;97269.19;;;2.05;72.78
72038;BME280;59900;50.788;12.904;2023-03-15T07:36:52;97269.25;;;2.13;73.26
72038;BME280;59900;50.788;12.904;2023-03-15T07:39:17;97273.00;;;2.19;72.21
72038;BME280;59900;50.788;12.904;2023-03-15T07:41:43;97285.16;;;2.18;72.39
72038;BME280;59900;50.788;12.904;2023-03-15T07:44:08;97309.59;;;2.16;71.96
72038;BME280;59900;50.788;12.904;2023-03-15T07:46:33;97317.38;;;2.16;72.26
72038;BME280;59900;50.788;12.904;2023-03-15T07:48:58;97319.97;;;1.98;71.08
72038;BME280;59900;50.788;12.904;2023-03-15T07:51:24;97303.88;;;1.95;72.63
72038;BME280;59900;50.788;12.904;2023-03-15T07:53:49;97301.59;;;1.92;74.18
72038;BME280;59900;50.788;12.904;2023-03-15T07:56:15;97296.28;;;1.93;74.45
72038;BME280;59900;50.788;12.904;2023-03-15T07:58:40;97302.13;;;1.95;75.17
72038;BME280;59900;50.788;12.904;2023-03-15T08:01:05;97304.88;;;1.94;74.68
72038;BME280;59900;50.788;12.904;2023-03-15T08:03:31;97305.66;;;1.94;74.98
72038;BME280;59900;50.788;12.904;2023-03-15T08:05:56;97296.03;;;1.87;75.53
72038;BME280;59900;50.788;12.904;2023-03-15T08:08:21;97308.34;;;1.85;75.90
72038;BME280;59900;50.788;12.904;2023-03-15T08:10:46;97318.53;;;1.86;76.05
72038;BME280;59900;50.788;12.904;2023-03-15T08:13:12;97315.59;;;1.81;77.38
72038;BME280;59900;50.788;12.904;2023-03-15T08:15:37;97322.69;;;1.61;79.82
72038;BME280;59900;50.788;12.904;2023-03-15T08:18:03;97333.75;;;1.54;81.89
72038;BME280;59900;50.788;12.904;2023-03-15T08:20:28;97331.06;;;1.46;84.31
72038;BME280;59900;50.788;12.904;2023-03-15T08:22:54;97333.03;;;1.34;86.23
72038;BME280;59900;50.788;12.904;2023-03-15T08:25:22;97340.25;;;1.31;86.31
72038;BME280;59900;50.788;12.904;2023-03-15T08:27:48;97346.00;;;1.25;86.47
72038;BME280;59900;50.788;12.904;2023-03-15T08:30:14;97352.41;;;1.21;87.46
72038;BME280;59900;50.788;12.904;2023-03-15T08:32:41;97346.84;;;1.16;87.61
72038;BME280;59900;50.788;12.904;2023-03-15T08:35:08;97357.19;;;1.25;88.03
72038;BME280;59900;50.788;12.904;2023-03-15T08:37:34;97355.69;;;1.23;87.19
72038;BME280;59900;50.788;12.904;2023-03-15T08:39:59;97359.50;;;1.28;88.42
72038;BME280;59900;50.788;12.904;2023-03-15T08:42:34;97372.84;;;1.24;89.03
72038;BME280;59900;50.788;12.904;2023-03-15T08:45:00;97364.13;;;1.25;90.37
72038;BME280;59900;50.788;12.904;2023-03-15T08:47:26;97361.97;;;1.20;90.18
72038;BME280;59900;50.788;12.904;2023-03-15T08:49:52;97370.53;;;1.21;91.31
72038;BME280;59900;50.788;12.904;2023-03-15T08:52:18;97364.69;;;1.19;91.51
72038;BME280;59900;50.788;12.904;2023-03-15T08:54:43;97362.66;;;1.12;91.39
72038;BME280;59900;50.788;12.904;2023-03-15T08:57:09;97373.03;;;1.12;91.51
72038;BME280;59900;50.788;12.904;2023-03-15T08:59:36;97374.78;;;1.12;92.27
72038;BME280;59900;50.788;12.904;2023-03-15T09:02:02;97382.72;;;1.01;92.66
72038;BME280;59900;50.788;12.904;2023-03-15T09:04:27;97386.69;;;1.05;93.06
72038;BME280;59900;50.788;12.904;2023-03-15T09:06:53;97387.63;;;1.04;93.27
72038;BME280;59900;50.788;12.904;2023-03-15T09:09:18;97373.03;;;1.03;92.81
72038;BME280;59900;50.788;12.904;2023-03-15T09:11:43;97398.34;;;1.09;92.82
72038;BME280;59900;50.788;12.904;2023-03-15T09:14:08;97381.06;;;1.09;91.61
72038;BME280;59900;50.788;12.904;2023-03-15T09:16:34;97385.56;;;1.17;91.82
72038;BME280;59900;50.788;12.904;2023-03-15T09:18:59;97377.06;;;1.25;91.81
72038;BME280;59900;50.788;12.904;2023-03-15T09:21:24;97386.28;;;1.37;90.58
72038;BME280;59900;50.788;12.904;2023-03-15T09:23:51;97392.00;;;1.40;90.74
72038;BME280;59900;50.788;12.904;2023-03-15T09:26:16;97390.47;;;1.47;90.52
72038;BME280;59900;50.788;12.904;2023-03-15T09:28:42;97383.38;;;1.49;90.99
72038;BME280;59900;50.788;12.904;2023-03-15T09:31:07;97395.03;;;1.63;90.40
72038;BME280;59900;50.788;12.904;2023-03-15T09:33:32;97397.28;;;1.76;90.74
72038;BME280;59900;50.788;12.904;2023-03-15T09:35:58;97406.56;;;1.78;89.88
72038;BME280;59900;50.788;12.904;2023-03-15T09:38:23;97393.56;;;1.88;88.57
72038;BME280;59900;50.788;12.904;2023-03-15T09:40:48;97400.75;;;1.94;88.82
72038;BME280;59900;50.788;12.904;2023-03-15T09:43:30;97399.75;;;1.95;88.41
72038;BME280;59900;50.788;12.904;2023-03-15T09:46:31;97397.03;;;1.96;88.01
72038;BME280;59900;50.788;12.904;2023-03-15T09:49:08;97403.41;;;2.02;88.30
72038;BME280;59900;50.788;12.904;2023-03-15T09:51:48;97404.53;;;1.99;88.19
72038;BME280;59900;50.788;12.904;2023-03-15T09:54:19;97407.78;;;2.01;87.99
72038;BME280;59900;50.788;12.904;2023-03-15T09:56:53;97412.16;;;2.01;87.27
72038;BME280;59900;50.788;12.904;2023-03-15T09:59:23;97409.72;;;1.99;87.44
72038;BME280;59900;50.788;12.904;2023-03-15T10:01:53;97414.59;;;2.02;87.57
72038;BME280;59900;50.788;12.904;2023-03-15T10:04:31;97422.38;;;2.02;88.33
72038;BME280;59900;50.788;12.904;2023-03-15T10:07:02;97407.03;;;2.09;87.59
72038;BME280;59900;50.788;12.904;2023-03-15T10:09:31;97416.25;;;2.21;88.18
72038;BME280;59900;50.788;12.904;2023-03-15T10:20:40;97416.94;;;2.41;86.16
72038;BME280;59900;50.788;12.904;2023-03-15T10:23:18;97411.75;;;2.41;85.47
72038;BME280;59900;50.788;12.904;2023-03-15T10:25:48;97409.38;;;2.47;85.59
72038;BME280;59900;50.788;12.904;2023-03-15T10:28:23;97407.59;;;2.48;85.32
72038;BME280;59900;50.788;12.904;2023-03-15T10:30:51;97426.69;;;2.47;84.72
72038;BME280;59900;50.788;12.904;2023-03-15T10:33:27;97416.03;;;2.50;84.89
72038;BME280;59900;50.788;12.904;2023-03-15T10:35:54;97408.47;;;2.56;84.42
72038;BME280;59900;50.788;12.904;2023-03-15T10:38:21;97414.47;;;2.57;82.88
72038;BME280;59900;50.788;12.904;2023-03-15T10:40:58;97417.22;;;2.55;83.58
72038;BME280;59900;50.788;12.904;2023-03-15T10:43:26;97414.19;;;2.60;84.22
72038;BME280;59900;50.788;12.904;2023-03-15T10:46:08;97416.59;;;2.61;83.55
72038;BME280;59900;50.788;12.904;2023-03-15T10:48:37;97413.66;;;2.56;83.44
72038;BME280;59900;50.788;12.904;2023-03-15T10:51:15;97419.44;;;2.50;81.84
72038;BME280;59900;50.788;12.904;2023-03-15T10:53:59;97424.34;;;2.53;83.12
72038;BME280;59900;50.788;12.904;2023-03-15T10:56:28;97424.84;;;2.57;83.96
72038;BME280;59900;50.788;12.904;2023-03-15T10:58:56;97420.72;;;2.64;84.41
72038;BME280;59900;50.788;12.904;2023-03-15T11:01:29;97418.31;;;2.70;83.82
72038;BME280;59900;50.788;12.904;2023-03-15T11:04:18;97424.53;;;2.77;83.59
72038;BME280;59900;50.788;12.904;2023-03-15T11:09:19;97425.06;;;2.81;82.82
72038;BME280;59900;50.788;12.904;2023-03-15T11:12:02;97434.16;;;2.85;82.39
72038;BME280;59900;50.788;12.904;2023-03-15T11:14:37;97425.59;;;2.67;81.72
72038;BME280;59900;50.788;12.904;2023-03-15T11:17:05;97428.63;;;2.62;83.03
72038;BME280;59900;50.788;12.904;2023-03-15T11:19:33;97429.75;;;2.60;83.90
72038;BME280;59900;50.788;12.904;2023-03-15T11:22:01;97431.44;;;2.51;82.77
72038;BME280;59900;50.788;12.904;2023-03-15T11:24:29;97430.56;;;2.43;81.37
72038;BME280;59900;50.788;12.904;2023-03-15T11:26:58;97428.25;;;2.40;82.33
72038;BME280;59900;50.788;12.904;2023-03-15T11:29:29;97421.44;;;2.39;83.37
72038;BME280;59900;50.788;12.904;2023-03-15T11:31:57;97430.19;;;2.38;83.53
72038;BME280;59900;50.788;12.904;2023-03-15T11:37:14;97432.88;;;2.46;83.50
72038;BME280;59900;50.788;12.904;2023-03-15T11:39:50;97427.81;;;2.44;83.70
72038;BME280;59900;50.788;12.904;2023-03-15T11:42:23;97433.16;;;2.43;83.13
72038;BME280;59900;50.788;12.904;2023-03-15T11:44:52;97426.84;;;2.45;84.09
72038;BME280;59900;50.788;12.904;2023-03-15T11:47:29;97425.31;;;2.52;84.20
72038;BME280;59900;50.788;12.904;2023-03-15T11:49:58;97426.78;;;2.55;83.92
72038;BME280;59900;50.788;12.904;2023-03-15T11:52:26;97418.72;;;2.58;83.41
72038;BME280;59900;50.788;12.904;2023-03-15T11:54:55;97421.59;;;2.55;83.72
72038;BME280;59900;50.788;12.904;2023-03-15T11:59:52;97411.50;;;2.69;83.38
72038;BME280;59900;50.788;12.904;2023-03-15T12:02:33;97400.53;;;2.75;84.23
72038;BME280;59900;50.788;12.904;2023-03-15T12:04:59;97407.03;;;2.79;82.87
72038;BME280;59900;50.788;12.904;2023-03-15T12:07:31;97410.97;;;2.83;82.46
72038;BME280;59900;50.788;12.904;2023-03-15T12:17:57;97410.44;;;3.49;80.60
72038;BME280;59900;50.788;12.904;2023-03-15T12:20:40;97408.19;;;3.62;78.90
72038;BME280;59900;50.788;12.904;2023-03-15T12:28:48;97397.81;;;4.12;74.96
72038;BME280;59900;50.788;12.904;2023-03-15T12:31:14;97407.06;;;4.07;74.35
72038;BME280;59900;50.788;12.904;2023-03-15T12:33:46;97400.38;;;3.96;73.86
72038;BME280;59900;50.788;12.904;2023-03-15T12:38:58;97423.34;;;3.67;74.45
72038;BME280;59900;50.788;12.904;2023-03-15T12:41:39;97417.09;;;3.52;74.68
72038;BME280;59900;50.788;12.904;2023-03-15T12:44:23;97422.34;;;3.34;76.00
72038;BME280;59900;50.788;12.904;2023-03-15T12:54:54;97438.13;;;2.09;88.14
72038;BME280;59900;50.788;12.904;2023-03-15T12:57:26;97446.16;;;1.88;90.59
72038;BME280;59900;50.788;12.904;2023-03-15T13:00:11;97444.41;;;1.61;92.67
72038;BME280;59900;50.788;12.904;2023-03-15T13:02:43;97436.16;;;1.39;93.36
72038;BME280;59900;50.788;12.904;2023-03-15T13:07:44;97448.34;;;1.19;96.06
72038;BME280;59900;50.788;12.904;2023-03-15T13:10:35;97451.03;;;1.18;97.75
72038;BME280;59900;50.788;12.904;2023-03-15T13:13:09;97448.34;;;1.19;99.10
72038;BME280;59900;50.788;12.904;2023-03-15T13:16:07;97451.75;;;1.20;98.85
72038;BME280;59900;50.788;12.904;2023-03-15T13:21:57;97467.94;;;1.22;99.39
72038;BME280;59900;50.788;12.904;2023-03-15T13:30:32;97496.00;;;1.17;99.59
72038;BME280;59900;50.788;12.904;2023-03-15T13:33:18;97499.94;;;1.21;99.80
72038;BME280;59900;50.788;12.904;2023-03-15T13:35:54;97494.53;;;1.14;99.11
72038;BME280;59900;50.788;12.904;2023-03-15T13:38:38;97495.75;;;1.20;99.52
72038;BME280;59900;50.788;12.904;2023-03-15T13:41:13;97502.25;;;1.33;99.53
72038;BME280;59900;50.788;12.904;2023-03-15T13:43:40;97499.09;;;1.49;98.64
72038;BME280;59900;50.788;12.904;2023-03-15T13:46:06;97505.59;;;1.62;97.81
72038;BME280;59900;50.788;12.904;2023-03-15T13:48:34;97498.13;;;1.87;97.36
72038;BME280;59900;50.788;12.904;2023-03-15T13:51:06;97502.53;;;2.13;95.95
72038;BME280;59900;50.788;12.904;2023-03-15T13:53:35;97502.50;;;2.41;95.38
72038;BME280;59900;50.788;12.904;2023-03-15T13:56:07;97502.38;;;2.60;94.16
72038;BME280;59900;50.788;12.904;2023-03-15T13:58:32;97506.75;;;2.77;92.26